SBGOSBUR

Guest
Details From SBGO - Santo Genoveva
To SBUR - Uberaba
Flight Number -
Tags generated
Created
Modified
Stats Distance 201 nm / 373 km
Max Altitude 0 ft / 0 m
Waypoints 2
Social Downloads 1
Likes 0
Share VATSIM

Download

Looking for another format? Having issues loading an existing format? Contact us
Advertisement - Login to hide

Notes

Basic altitude profile: - Ascent Rate: 1500ft/min - Ascent Speed: 120kts - Cruise Altitude: 9500ft - Cruise Speed: 160kts - Descent Rate: 1500ft/min - Descent Speed: 140kts Options: - Use NATs: no - Use PACOTS: no - Use low airways: no - Use high airways: no

Route

SBGO SBUR

ID Type Via Altitude Latitude Longitude Leg Dist Tot Dist Heading (true) Name
O SBGO APT - 0 ft / 0 m -16.63203˚ -49.22069˚ - 0 nm - Santo Genoveva
O SBUR APT - 0 ft / 0 m -19.76500˚ -47.96478˚ 201 nm 201 nm 159° / 159° Uberaba

Altitude Profile

Advertisement - Login to hide

Weather


0- 5 10 15 20 25 30 35+ Temperature / ° C

Clouds and Precipitation
Forecast for 2017-12-15 12:00 UTC. Updated an hour ago

Ground ~20,000 ft ~40,000 ft Winds

SBGO

Details ICAO SBGO (GYN)
Name Santo Genoveva
Region Brazil
Timezone America/Sao_Paulo (UTC-2.0)
Stats Elevation 2,450 ft / 747 m (AMSL)
Location -16.632032° -49.220686°
Runways 1
Magnetic Variation 20.989° W

METAR

SBGO 151030Z 32011KT 9999 BKN007 22/20 Q1016

Decode

TAF

TAF SBGO 150200Z 1506/1606 05008KT 9999 SCT030 TN20/1509Z TX26/1518Z PROB40 TEMPO 1506/1508 9000 RA SCT020 FM151200 05009KT 9999 SCT020 TEMPO 1519/1522 34010KT 9999 SHRA SCT025 FEW030TCU RMK PCZ

Decode

Departure Runways

ID Width Length Bearing (true) Bearing (mag) Surface Threshold Offset Overrun Length
14 148 ft / 45 m 8,208 ft / 2,502 m 120.42° 141.41° Asphalt 0 ft / 0 m 0 ft / 0 m
32 148 ft / 45 m 8,208 ft / 2,502 m 300.41° 321.40° Asphalt 980 ft / 299 m 0 ft / 0 m

SBUR

Details ICAO SBUR (UBA)
Name Uberaba
Region Brazil
Timezone America/Sao_Paulo (UTC-2.0)
Stats Elevation 2,655 ft / 809 m (AMSL)
Location -19.765000° -47.964777°
Runways 1
Magnetic Variation 21.285° W

METAR

SBUR 151000Z 06011KT 9999 FEW015 21/17 Q1017

Decode

TAF

TAF SBUR 150100Z 1506/1518 07008KT CAVOK TN21/1509Z TX31/1517Z BECMG 1506/1508 BKN017 BECMG 1512/1514 BKN025 PROB30 1517/1518 FEW045TCU RMK PHH

Decode

Destination Runways

ID Width Length Bearing (true) Bearing (mag) Surface Threshold Offset Overrun Length
17 148 ft / 45 m 5,791 ft / 1,765 m 149.07° 170.36° Asphalt 0 ft / 0 m 0 ft / 0 m
35 148 ft / 45 m 5,791 ft / 1,765 m 329.07° 350.36° Asphalt 0 ft / 0 m 0 ft / 0 m

Popular Alternatives